This is the latest recevied weather packets stored in our database for station/object KD8YBJ. If no packets are shown the sender has not sent any weather packets the latest 10 day(s).
| Time | Temp. | Humidity | Pressure | Rain* | Wind** | Luminosity | Snow |
|---|---|---|---|---|---|---|---|
| 1777980617 | 7.78° C | 72% | 1005.5 hPa | 0 mm | - | 24 W/m² | - |
| 1777980059 | 7.78° C | 76% | 1005.4 hPa | 0 mm | - | 21 W/m² | - |
| 1777976418 | 6.67° C | 82% | 1004.5 hPa | 0 mm | - | 0 W/m² | - |
| 1777975859 | 7.22° C | 80% | 1004.2 hPa | 0 mm | - | 0 W/m² | - |
| 1777971616 | 7.22° C | 81% | 1002.7 hPa | 0 mm | - | 0 W/m² | - |
| 1777965637 | 12.22° C | 56% | 1000.9 hPa | 0 mm | - | 0 W/m² | - |
| 1777965018 | 12.22° C | 54% | 1000.8 hPa | 0 mm | - | 0 W/m² | - |
| 1777964417 | 12.22° C | 53% | 1000.8 hPa | 0 mm | - | 0 W/m² | - |
| 1777959016 | 13.89° C | 51% | 1000.1 hPa | 0 mm | - | 0 W/m² | - |
| 1777957817 | 12.22° C | 75% | 1000.1 hPa | 0 mm | - | 0 W/m² | - |
| 1777955437 | 12.78° C | 76% | 999.1 hPa | 0 mm | - | 0 W/m² | - |
| 1777952438 | 12.78° C | 76% | 999.5 hPa | 0 mm | - | 0 W/m² | - |
| 1777951215 | 12.22° C | 79% | 999.5 hPa | 0 mm | - | 0 W/m² | - |
| 1777945817 | 15.56° C | 68% | 997.2 hPa | 0.25 mm | - | 0 W/m² | - |
| 1777942218 | 18.89° C | 60% | 996.3 hPa | 0 mm | - | 1 W/m² | - |
| 1777940418 | 21.67° C | 43% | 995.9 hPa | 0 mm | - | 17 W/m² | - |
| 1777939820 | 21.67° C | 41% | 995.7 hPa | 0 mm | - | 23 W/m² | - |
| 1777936816 | 22.78° C | 39% | 996.1 hPa | 0 mm | - | 66 W/m² | - |
| 1777935017 | 22.78° C | 40% | 996.8 hPa | 0 mm | - | 235 W/m² | - |
| 1777934417 | 22.78° C | 41% | 997 hPa | 0 mm | - | 275 W/m² | - |
| 1777933260 | 22.78° C | 41% | 997.3 hPa | 0 mm | - | 216 W/m² | - |
| 1777925416 | 20.56° C | 52% | 998.8 hPa | 0 mm | - | 370 W/m² | - |
| 1777924216 | 20.56° C | 51% | 999 hPa | 0 mm | - | 476 W/m² | - |
| 1777923616 | 20.56° C | 51% | 999 hPa | 0 mm | - | 518 W/m² | - |
| 1777922417 | 20.56° C | 51% | 999 hPa | 0 mm | - | 649 W/m² | - |
* Rain latest hour (hover to see other rain measurements)
** Current wind speed in m/s (hover to see current wind gust speed)